createdAt,value
2019-01-21T00:00:16.190Z,72.87
2019-01-21T00:02:44.566Z,63.83
2019-01-21T00:05:12.977Z,58.60
2019-01-21T00:07:41.358Z,59.53
2019-01-21T00:10:09.777Z,58.20
2019-01-21T00:12:38.159Z,45.13
2019-01-21T00:15:08.696Z,51.63
2019-01-21T00:17:37.085Z,49.77
2019-01-21T00:20:06.942Z,45.93
2019-01-21T00:22:35.327Z,54.17
2019-01-21T00:25:04.704Z,51.47
2019-01-21T00:27:33.094Z,50.13
2019-01-21T00:30:01.502Z,49.90
2019-01-21T00:32:29.881Z,54.73
2019-01-21T00:34:58.309Z,40.83
2019-01-21T00:37:26.689Z,51.00
2019-01-21T00:39:55.064Z,51.10
2019-01-21T00:42:23.481Z,50.17
2019-01-21T00:44:51.865Z,45.00
2019-01-21T00:47:20.269Z,45.47
2019-01-21T00:49:48.646Z,47.57
2019-01-21T00:52:17.058Z,45.97
2019-01-21T00:54:45.441Z,48.47
2019-01-21T00:57:13.811Z,35.77
2019-01-21T00:59:42.225Z,45.20
2019-01-21T01:02:10.597Z,43.37
2019-01-21T01:04:38.979Z,41.37
2019-01-21T01:07:07.401Z,36.20
2019-01-21T01:09:35.781Z,37.00
2019-01-21T01:12:04.193Z,45.73
2019-01-21T01:14:32.573Z,39.37
2019-01-21T01:17:00.945Z,43.30
2019-01-21T01:19:29.362Z,39.83
2019-01-21T01:21:57.736Z,39.13
2019-01-21T01:24:26.155Z,46.30
2019-01-21T01:26:54.532Z,44.13
2019-01-21T01:29:22.904Z,40.50
2019-01-21T01:31:51.320Z,36.20
2019-01-21T01:34:19.713Z,35.20
2019-01-21T01:36:48.133Z,39.63
2019-01-21T01:39:16.505Z,33.73
2019-01-21T01:41:45.096Z,33.83
2019-01-21T01:44:13.503Z,35.17
2019-01-21T01:46:42.286Z,36.60
2019-01-21T01:49:10.692Z,34.43
2019-01-21T01:51:39.065Z,36.70
2019-01-21T01:54:07.445Z,34.73
2019-01-21T01:56:35.869Z,39.67
2019-01-21T01:59:04.246Z,35.97
2019-01-21T02:01:32.664Z,38.30
2019-01-21T02:04:01.045Z,35.30
2019-01-21T02:06:29.452Z,32.47
2019-01-21T02:08:57.828Z,36.63
2019-01-21T02:11:26.243Z,36.60
2019-01-21T02:13:55.052Z,37.30
2019-01-21T02:16:23.430Z,38.30
2019-01-21T02:18:51.844Z,37.20
2019-01-21T02:21:31.717Z,37.17
2019-01-21T02:24:11.424Z,37.00
2019-01-21T02:26:45.052Z,34.13
2019-01-21T02:29:16.713Z,36.70
2019-01-21T02:31:57.386Z,34.90
2019-01-21T02:34:48.594Z,36.50
2019-01-21T02:37:32.107Z,35.70
2019-01-21T02:40:12.534Z,35.20
2019-01-21T02:42:46.937Z,38.10
2019-01-21T02:45:48.190Z,38.00
2019-01-21T02:48:49.953Z,39.63
2019-01-21T02:51:31.057Z,35.83
2019-01-21T02:54:17.888Z,37.93
2019-01-21T02:57:07.650Z,37.27
2019-01-21T02:59:57.117Z,34.03
2019-01-21T03:02:31.414Z,37.83
2019-01-21T03:05:09.096Z,40.13
2019-01-21T03:07:49.830Z,33.57
2019-01-21T03:10:37.922Z,34.23
2019-01-21T03:13:18.249Z,38.47
2019-01-21T03:15:52.565Z,36.10
2019-01-21T03:18:30.155Z,37.13
2019-01-21T03:21:18.185Z,33.80
2019-01-21T03:23:55.899Z,36.83
2019-01-21T03:26:36.597Z,36.47
2019-01-21T03:29:17.290Z,37.13
2019-01-21T03:31:57.899Z,36.33
2019-01-21T03:34:52.317Z,37.00
2019-01-21T03:37:39.205Z,38.67
2019-01-21T03:40:22.682Z,37.33
2019-01-21T03:42:59.931Z,40.50
2019-01-21T03:45:40.594Z,42.10
2019-01-21T03:48:16.665Z,38.90
2019-01-21T03:51:03.304Z,42.37
2019-01-21T03:53:46.962Z,40.80
2019-01-21T03:56:18.299Z,38.47
2019-01-21T03:59:09.181Z,41.23
2019-01-21T04:01:46.541Z,40.73
2019-01-21T04:04:26.965Z,46.70
2019-01-21T04:06:58.803Z,40.20
2019-01-21T04:09:36.550Z,42.67
2019-01-21T04:12:14.155Z,47.17
2019-01-21T04:15:16.254Z,43.97
2019-01-21T04:17:56.638Z,38.17
2019-01-21T04:20:44.414Z,43.97
2019-01-21T04:23:40.342Z,42.03
2019-01-21T04:26:14.502Z,36.47
2019-01-21T04:29:01.441Z,39.47
2019-01-21T04:31:39.752Z,39.17
2019-01-21T04:34:14.093Z,41.60
2019-01-21T04:37:10.700Z,42.50
2019-01-21T04:39:53.656Z,42.40
2019-01-21T04:42:37.499Z,42.40
2019-01-21T04:45:25.699Z,44.70
2019-01-21T04:48:21.640Z,38.23
2019-01-21T04:51:05.097Z,34.20
2019-01-21T04:53:39.663Z,39.43
2019-01-21T04:56:16.919Z,38.33
2019-01-21T04:59:09.649Z,37.60
2019-01-21T05:02:02.895Z,43.63
2019-01-21T05:04:44.340Z,39.23
2019-01-21T05:07:34.280Z,42.83
2019-01-21T05:10:31.595Z,43.27
2019-01-21T05:13:15.333Z,42.27
2019-01-21T05:15:46.991Z,36.93
2019-01-21T05:18:45.914Z,41.27
2019-01-21T05:21:33.995Z,41.07
2019-01-21T05:24:20.767Z,45.63
2019-01-21T05:27:04.342Z,48.37
2019-01-21T05:29:58.719Z,43.43
2019-01-21T05:32:39.235Z,44.53
2019-01-21T05:35:28.989Z,45.60
2019-01-21T05:38:18.800Z,49.00
2019-01-21T05:41:02.189Z,43.73
2019-01-21T05:43:53.458Z,51.80
2019-01-21T05:46:30.817Z,49.60
2019-01-21T05:49:28.521Z,50.13
2019-01-21T05:52:12.068Z,46.60
2019-01-21T05:55:16.934Z,44.33
2019-01-21T05:58:05.161Z,42.47
2019-01-21T06:00:39.795Z,45.63
2019-01-21T06:03:20.229Z,44.83
2019-01-21T06:06:10.010Z,46.43
2019-01-21T06:08:56.226Z,50.77
2019-01-21T06:11:47.278Z,48.13
2019-01-21T06:14:21.623Z,52.50
2019-01-21T06:17:11.379Z,48.73
2019-01-21T06:19:51.555Z,52.30
2019-01-21T06:22:44.346Z,48.37
2019-01-21T06:25:21.178Z,47.00
2019-01-21T06:28:04.631Z,50.07
2019-01-21T06:30:41.897Z,54.17
2019-01-21T06:33:19.263Z,52.80
2019-01-21T06:36:27.072Z,50.30
2019-01-21T06:39:13.736Z,46.97
2019-01-21T06:42:17.236Z,50.83
2019-01-21T06:44:51.890Z,49.23
2019-01-21T06:47:32.521Z,51.17
2019-01-21T06:50:16.152Z,47.50
2019-01-21T06:53:14.953Z,53.10
2019-01-21T06:55:47.170Z,47.17
2019-01-21T06:58:18.947Z,46.20
2019-01-21T07:01:06.826Z,44.13
2019-01-21T07:03:47.354Z,54.13
2019-01-21T07:06:38.822Z,51.77
2019-01-21T07:09:19.331Z,51.67
2019-01-21T07:12:00.164Z,55.00
2019-01-21T07:14:48.315Z,48.43
2019-01-21T07:17:39.776Z,52.27
2019-01-21T07:20:28.216Z,48.37
2019-01-21T07:23:14.642Z,56.20
2019-01-21T07:25:54.967Z,49.57
2019-01-21T07:28:35.519Z,56.23
2019-01-21T07:31:15.971Z,48.57
2019-01-21T07:34:07.363Z,47.13
2019-01-21T07:37:00.347Z,51.57
2019-01-21T07:39:48.409Z,54.70
2019-01-21T07:42:34.610Z,51.73
2019-01-21T07:45:30.617Z,56.33
2019-01-21T07:48:14.317Z,49.87
2019-01-21T07:50:51.973Z,42.37
2019-01-21T07:53:26.399Z,49.33
2019-01-21T07:56:09.692Z,55.80
2019-01-21T07:58:58.658Z,59.43
2019-01-21T08:01:30.388Z,50.70
2019-01-21T08:04:19.062Z,40.83
2019-01-21T08:07:05.564Z,49.93
2019-01-21T08:09:46.200Z,59.00
2019-01-21T08:12:20.931Z,51.17
2019-01-21T08:14:52.620Z,58.30
2019-01-21T08:17:33.209Z,54.27
2019-01-21T08:20:26.274Z,49.33
2019-01-21T08:23:01.974Z,49.23
2019-01-21T08:25:42.854Z,57.27
2019-01-21T08:28:26.381Z,51.13
2019-01-21T08:31:14.905Z,49.23
2019-01-21T08:33:49.442Z,55.20
2019-01-21T08:36:23.865Z,50.63
2019-01-21T08:39:14.711Z,52.37
2019-01-21T08:42:04.708Z,54.57
2019-01-21T08:44:45.496Z,50.07
2019-01-21T08:47:31.968Z,47.93
2019-01-21T08:50:18.484Z,47.73
2019-01-21T08:52:56.135Z,47.63
2019-01-21T08:55:36.856Z,46.20
2019-01-21T08:58:20.622Z,47.53
2019-01-21T09:01:10.179Z,43.70
2019-01-21T09:03:44.591Z,40.03
2019-01-21T09:06:37.410Z,41.67
2019-01-21T09:09:23.870Z,46.63
2019-01-21T09:12:01.532Z,45.00
2019-01-21T09:14:36.170Z,40.17
2019-01-21T09:17:19.712Z,38.87
2019-01-21T09:20:10.632Z,39.93
2019-01-21T09:22:45.312Z,36.33
2019-01-21T09:25:32.171Z,38.97
2019-01-21T09:28:21.836Z,36.87
2019-01-21T09:30:59.495Z,38.03
2019-01-21T09:33:48.976Z,38.27
2019-01-21T09:36:23.231Z,36.13
2019-01-21T09:39:06.156Z,37.10
2019-01-21T09:41:43.794Z,37.10
2019-01-21T09:44:21.094Z,36.93
2019-01-21T09:46:48.622Z,37.27
2019-01-21T09:49:16.262Z,37.63
2019-01-21T09:51:46.396Z,38.10
2019-01-21T09:54:14.815Z,39.20
2019-01-21T09:56:43.202Z,37.73
2019-01-21T09:59:11.630Z,38.47
2019-01-21T10:01:40.106Z,37.30
2019-01-21T10:04:08.523Z,37.60
2019-01-21T10:06:46.270Z,34.87
2019-01-21T10:09:36.050Z,36.77
2019-01-21T10:12:20.193Z,35.00
2019-01-21T10:15:06.908Z,35.90
2019-01-21T10:18:07.451Z,32.93
2019-01-21T10:20:54.334Z,34.77
2019-01-21T10:23:41.077Z,34.00
2019-01-21T10:26:30.886Z,36.27
2019-01-21T10:29:08.379Z,43.67
2019-01-21T10:32:08.523Z,37.10
2019-01-21T10:34:46.174Z,37.43
2019-01-21T10:37:35.678Z,37.00
2019-01-21T10:40:13.036Z,34.33
2019-01-21T10:43:01.010Z,34.77
2019-01-21T10:45:38.760Z,35.23
2019-01-21T10:48:16.007Z,36.70
2019-01-21T10:50:56.879Z,36.07
2019-01-21T10:53:34.550Z,39.00
2019-01-21T10:56:21.544Z,41.03
2019-01-21T10:59:10.560Z,33.20
2019-01-21T11:01:57.125Z,34.27
2019-01-21T11:04:40.840Z,39.80
2019-01-21T11:07:15.521Z,32.77
2019-01-21T11:09:56.119Z,36.13
2019-01-21T11:12:45.697Z,32.03
2019-01-21T11:15:26.538Z,34.00
2019-01-21T11:18:10.074Z,35.23
2019-01-21T11:20:59.502Z,35.50
2019-01-21T11:23:45.644Z,32.90
2019-01-21T11:26:22.848Z,32.83
2019-01-21T11:29:06.663Z,34.63
2019-01-21T11:31:53.361Z,36.67
2019-01-21T11:34:37.133Z,35.83
2019-01-21T11:37:11.599Z,35.70
2019-01-21T11:40:01.270Z,33.87
2019-01-21T11:42:45.025Z,36.03
2019-01-21T11:45:21.907Z,36.10
2019-01-21T11:47:59.724Z,36.67
2019-01-21T11:50:43.135Z,37.23
2019-01-21T11:53:35.266Z,35.60
2019-01-21T11:56:09.604Z,37.77
2019-01-21T11:58:52.638Z,36.00
2019-01-21T12:01:42.049Z,38.07
2019-01-21T12:04:31.741Z,38.17
2019-01-21T12:07:15.108Z,34.60
2019-01-21T12:09:58.671Z,36.73
2019-01-21T12:12:39.242Z,52.60
2019-01-21T12:15:23.118Z,40.37
2019-01-21T12:18:00.375Z,40.23
2019-01-21T12:20:56.178Z,37.33
2019-01-21T12:23:39.814Z,37.70
2019-01-21T12:26:17.339Z,40.90
2019-01-21T12:28:54.925Z,37.50
2019-01-21T12:31:48.967Z,38.63
2019-01-21T12:34:23.124Z,41.17
2019-01-21T12:36:57.847Z,38.17
2019-01-21T12:39:47.387Z,38.33
2019-01-21T12:42:22.011Z,34.20
2019-01-21T12:45:11.668Z,39.17
2019-01-21T12:47:49.018Z,32.47
2019-01-21T12:50:37.290Z,34.40
2019-01-21T12:53:20.675Z,34.23
2019-01-21T12:56:08.906Z,33.20
2019-01-21T12:58:58.375Z,38.50
2019-01-21T13:01:41.966Z,35.10
2019-01-21T13:04:16.310Z,34.33
2019-01-21T13:07:17.671Z,36.07
2019-01-21T13:09:52.227Z,37.43
2019-01-21T13:12:44.669Z,32.53
2019-01-21T13:15:19.061Z,34.07
2019-01-21T13:17:56.283Z,33.80
2019-01-21T13:20:39.781Z,34.53
2019-01-21T13:23:17.591Z,32.30
2019-01-21T13:26:09.819Z,38.03
2019-01-21T13:28:44.235Z,35.93
2019-01-21T13:31:15.910Z,38.03
2019-01-21T13:34:19.081Z,34.47
2019-01-21T13:36:59.277Z,34.80
2019-01-21T13:39:51.563Z,33.77
2019-01-21T13:42:23.234Z,37.50
2019-01-21T13:45:03.667Z,33.57
2019-01-21T13:47:47.223Z,34.80
2019-01-21T13:50:21.599Z,36.33
2019-01-21T13:53:02.231Z,34.83
2019-01-21T13:55:39.682Z,36.53
2019-01-21T13:58:17.233Z,35.67
2019-01-21T14:00:54.773Z,36.73
2019-01-21T14:03:38.254Z,37.67
2019-01-21T14:06:15.012Z,56.13
2019-01-21T14:09:15.186Z,37.03
2019-01-21T14:11:55.825Z,36.03
2019-01-21T14:14:30.341Z,41.30
2019-01-21T14:17:10.370Z,40.10
2019-01-21T14:19:42.058Z,45.13
2019-01-21T14:22:19.301Z,43.43
2019-01-21T14:25:00.010Z,37.50
2019-01-21T14:27:49.840Z,35.37
2019-01-21T14:30:21.553Z,52.03
2019-01-21T14:33:08.259Z,38.33
2019-01-21T14:35:48.872Z,60.57
2019-01-21T14:38:55.101Z,57.60
2019-01-21T14:42:01.611Z,135.27
2019-01-21T14:44:41.879Z,49.40
2019-01-21T14:47:22.285Z,55.00
2019-01-21T14:49:58.117Z,39.63
2019-01-21T14:52:49.525Z,42.30
2019-01-21T14:55:21.254Z,54.60
2019-01-21T14:58:02.048Z,51.23
2019-01-21T15:00:52.981Z,40.60
2019-01-21T15:03:39.557Z,35.30
2019-01-21T15:06:27.771Z,37.20
2019-01-21T15:09:07.253Z,33.23
2019-01-21T15:12:04.919Z,31.97
2019-01-21T15:14:42.959Z,31.93
2019-01-21T15:17:23.657Z,31.23
2019-01-21T15:19:52.833Z,32.60
2019-01-21T15:22:33.412Z,35.47
2019-01-21T15:25:19.083Z,29.20
2019-01-21T15:28:14.681Z,30.73
2019-01-21T15:31:11.281Z,28.63
2019-01-21T15:33:56.921Z,34.80
2019-01-21T15:36:50.735Z,39.07
2019-01-21T15:42:28.212Z,55.80
2019-01-21T15:45:38.089Z,48.73
2019-01-21T15:48:27.799Z,48.13
2019-01-21T15:51:10.608Z,42.63
2019-01-21T15:53:47.540Z,41.70
2019-01-21T15:56:39.499Z,40.17
2019-01-21T15:59:37.147Z,40.83
2019-01-21T16:02:29.538Z,37.00
2019-01-21T16:05:07.827Z,39.03
2019-01-21T16:07:43.876Z,39.80
2019-01-21T16:10:15.632Z,32.77
2019-01-21T16:13:17.501Z,34.20
2019-01-21T16:15:58.560Z,40.60
2019-01-21T16:18:45.592Z,34.13
2019-01-21T16:21:29.384Z,34.30
2019-01-21T16:24:19.597Z,32.90
2019-01-21T16:26:52.033Z,39.17
2019-01-21T16:29:29.825Z,46.83
2019-01-21T16:31:59.888Z,47.63
2019-01-21T16:34:51.341Z,46.97
2019-01-21T16:37:32.279Z,50.03
2019-01-21T16:40:25.975Z,41.83
2019-01-21T16:42:54.749Z,36.23
2019-01-21T16:45:24.181Z,36.70
2019-01-21T16:47:53.066Z,40.07
2019-01-21T16:50:23.225Z,37.50
2019-01-21T16:52:51.888Z,39.77
2019-01-21T16:55:22.692Z,39.67
2019-01-21T16:57:51.740Z,38.23
2019-01-21T17:00:21.279Z,44.40
2019-01-21T17:02:49.805Z,40.57
2019-01-21T17:08:00.761Z,39.40
2019-01-21T17:10:29.363Z,44.33
2019-01-21T17:12:59.529Z,41.60
2019-01-21T17:15:28.105Z,39.43
2019-01-21T17:17:56.556Z,39.77
2019-01-21T17:20:25.105Z,37.30
2019-01-21T17:22:53.673Z,40.63
2019-01-21T17:25:22.072Z,39.53
2019-01-21T17:27:50.631Z,35.63
2019-01-21T17:30:19.125Z,38.57
2019-01-21T17:32:48.352Z,40.57
2019-01-21T17:35:16.946Z,41.57
2019-01-21T17:37:45.535Z,46.13
2019-01-21T17:40:16.588Z,49.00
2019-01-21T17:42:45.132Z,46.03
2019-01-21T17:45:16.122Z,50.37
2019-01-21T17:47:45.479Z,43.53
2019-01-21T17:50:16.251Z,47.23
2019-01-21T17:52:47.543Z,52.67
2019-01-21T17:55:15.967Z,51.17
2019-01-21T17:57:44.404Z,46.07
2019-01-21T18:00:16.932Z,40.47
2019-01-21T18:02:45.431Z,44.63
2019-01-21T18:05:13.882Z,65.83
2019-01-21T18:07:42.444Z,57.23
2019-01-21T18:10:13.166Z,59.40
2019-01-21T18:12:41.594Z,65.83
2019-01-21T18:15:11.725Z,64.90
2019-01-21T18:17:40.211Z,63.67
2019-01-21T18:20:14.958Z,61.53
2019-01-21T18:22:43.386Z,73.97
2019-01-21T18:25:12.527Z,72.77
2019-01-21T18:27:40.957Z,85.87
2019-01-21T18:30:15.262Z,82.40
2019-01-21T18:32:43.660Z,80.43
2019-01-21T18:35:13.119Z,81.53
2019-01-21T18:37:41.549Z,75.27
2019-01-21T18:40:30.992Z,75.53
2019-01-21T18:42:59.415Z,65.30
2019-01-21T18:45:27.879Z,63.23
2019-01-21T18:47:56.263Z,60.30
2019-01-21T18:50:24.699Z,54.87
2019-01-21T18:52:53.095Z,64.40
2019-01-21T18:55:21.523Z,64.30
2019-01-21T18:57:55.740Z,63.10
2019-01-21T19:00:24.445Z,66.33
2019-01-21T19:02:52.915Z,61.03
2019-01-21T19:05:21.535Z,63.57
2019-01-21T19:07:49.956Z,64.50
2019-01-21T19:10:18.741Z,77.60
2019-01-21T19:12:49.947Z,79.10
2019-01-21T19:15:21.346Z,68.87
2019-01-21T19:17:49.979Z,68.43
2019-01-21T19:20:18.374Z,60.60
2019-01-21T19:22:47.274Z,74.80
2019-01-21T19:25:15.860Z,74.37
2019-01-21T19:27:44.904Z,96.20
2019-01-21T19:30:24.889Z,87.70
2019-01-21T19:32:53.626Z,77.73
2019-01-21T19:35:34.773Z,70.40
2019-01-21T19:38:03.395Z,61.07
2019-01-21T19:40:34.066Z,71.13
2019-01-21T19:43:02.858Z,75.40
2019-01-21T19:45:31.598Z,79.87
2019-01-21T19:48:02.450Z,89.27
2019-01-21T19:50:31.401Z,118.10
2019-01-21T19:52:59.941Z,88.70
2019-01-21T19:55:57.063Z,90.37
2019-01-21T19:58:25.542Z,105.50
2019-01-21T20:00:54.331Z,112.23
2019-01-21T20:03:22.815Z,100.07
2019-01-21T20:05:51.322Z,101.37
2019-01-21T20:08:19.802Z,108.77
2019-01-21T20:10:48.320Z,105.57
2019-01-21T20:13:16.864Z,98.70
2019-01-21T20:15:45.439Z,99.27
2019-01-21T20:18:14.012Z,96.40
2019-01-21T20:20:42.396Z,115.17
2019-01-21T20:23:10.819Z,90.20
2019-01-21T20:25:39.544Z,85.03
2019-01-21T20:28:08.007Z,94.13
2019-01-21T20:30:36.397Z,89.53
2019-01-21T20:33:04.884Z,85.43
2019-01-21T20:35:33.318Z,88.20
2019-01-21T20:38:01.708Z,98.63
2019-01-21T20:40:30.212Z,112.10
2019-01-21T20:42:59.146Z,100.50
2019-01-21T20:45:27.602Z,84.70
2019-01-21T20:47:57.240Z,99.17
2019-01-21T20:50:28.897Z,86.47
2019-01-21T20:52:59.708Z,91.17
2019-01-21T20:55:28.136Z,79.87
2019-01-21T20:57:56.711Z,90.97
2019-01-21T21:00:27.873Z,81.10
2019-01-21T21:02:56.551Z,86.73
2019-01-21T21:05:25.060Z,86.40
2019-01-21T21:07:54.729Z,74.03
2019-01-21T21:10:24.870Z,78.33
2019-01-21T21:12:53.464Z,70.40
2019-01-21T21:15:27.701Z,71.07
2019-01-21T21:17:56.361Z,78.37
2019-01-21T21:20:24.991Z,76.60
2019-01-21T21:22:53.458Z,75.67
2019-01-21T21:25:21.937Z,77.63
2019-01-21T21:27:50.330Z,71.93
2019-01-21T21:30:30.897Z,79.47
2019-01-21T21:32:59.438Z,72.50
2019-01-21T21:35:28.001Z,64.63
2019-01-21T21:37:56.987Z,69.03
2019-01-21T21:40:25.658Z,62.17
2019-01-21T21:42:54.280Z,64.03
2019-01-21T21:45:22.936Z,67.43
2019-01-21T21:47:52.396Z,74.27
2019-01-21T21:50:31.059Z,64.33
2019-01-21T21:52:59.598Z,58.60
2019-01-21T21:55:27.982Z,63.30
2019-01-21T21:57:56.498Z,68.80
2019-01-21T22:00:27.048Z,70.97
2019-01-21T22:02:55.612Z,62.37
2019-01-21T22:05:25.485Z,65.33
2019-01-21T22:07:54.057Z,68.37
2019-01-21T22:10:25.200Z,70.63
2019-01-21T22:12:54.709Z,74.80
2019-01-21T22:15:25.392Z,104.23
2019-01-21T22:17:54.849Z,96.40
2019-01-21T22:20:24.916Z,79.83
2019-01-21T22:22:53.392Z,78.03
2019-01-21T22:25:21.976Z,72.87
2019-01-21T22:27:50.462Z,59.00
2019-01-21T22:30:26.358Z,70.77
2019-01-21T22:32:56.554Z,68.80
2019-01-21T22:35:25.325Z,70.43
2019-01-21T22:37:54.013Z,75.17
2019-01-21T22:40:22.690Z,69.83
2019-01-21T22:42:51.142Z,72.27
2019-01-21T22:45:20.483Z,62.50
2019-01-21T22:47:50.638Z,65.87
2019-01-21T22:50:19.917Z,61.27
2019-01-21T22:52:50.106Z,65.70
2019-01-21T22:55:19.824Z,69.43
2019-01-21T22:57:48.349Z,85.93
2019-01-21T23:00:22.370Z,81.80
2019-01-21T23:02:56.376Z,91.93
2019-01-21T23:05:28.549Z,93.80
2019-01-21T23:07:57.538Z,90.47
2019-01-21T23:10:26.207Z,83.27
2019-01-21T23:12:55.203Z,82.30
2019-01-21T23:15:23.806Z,85.20
2019-01-21T23:17:52.177Z,84.07
2019-01-21T23:20:20.985Z,84.33
2019-01-21T23:22:49.534Z,86.00
2019-01-21T23:25:17.957Z,83.87
2019-01-21T23:27:46.375Z,83.97
2019-01-21T23:30:17.007Z,94.07
2019-01-21T23:32:45.498Z,74.90
2019-01-21T23:35:13.884Z,77.13
2019-01-21T23:37:42.307Z,83.07
2019-01-21T23:40:11.923Z,82.80
2019-01-21T23:42:40.293Z,88.43
2019-01-21T23:45:09.899Z,87.33
2019-01-21T23:47:38.291Z,86.40
2019-01-21T23:50:14.476Z,77.57
2019-01-21T23:52:42.963Z,90.53
2019-01-21T23:55:12.834Z,83.80
2019-01-21T23:57:41.219Z,72.40
